sensor_id;sensor_type;location;lat;lon;timestamp;pressure;altitude;pressure_sealevel;temperature;humidity
52719;BME280;38616;42.140;24.760;2023-04-25T00:01:39;98847.16;;;14.37;74.34
52719;BME280;38616;42.140;24.760;2023-04-25T00:04:08;98844.41;;;14.37;75.02
52719;BME280;38616;42.140;24.760;2023-04-25T00:06:36;98841.53;;;14.16;75.03
52719;BME280;38616;42.140;24.760;2023-04-25T00:09:05;98840.91;;;14.28;75.15
52719;BME280;38616;42.140;24.760;2023-04-25T00:11:34;98841.38;;;14.30;75.31
52719;BME280;38616;42.140;24.760;2023-04-25T00:14:02;98830.09;;;14.31;74.67
52719;BME280;38616;42.140;24.760;2023-04-25T00:16:28;98829.63;;;14.38;74.94
52719;BME280;38616;42.140;24.760;2023-04-25T00:18:54;98825.44;;;14.41;74.76
52719;BME280;38616;42.140;24.760;2023-04-25T00:21:20;98818.31;;;14.75;74.16
52719;BME280;38616;42.140;24.760;2023-04-25T00:23:46;98829.88;;;14.63;73.71
52719;BME280;38616;42.140;24.760;2023-04-25T00:26:12;98821.53;;;14.59;73.56
52719;BME280;38616;42.140;24.760;2023-04-25T00:28:39;98815.59;;;14.57;73.40
52719;BME280;38616;42.140;24.760;2023-04-25T00:31:05;98812.03;;;14.66;73.79
52719;BME280;38616;42.140;24.760;2023-04-25T00:33:30;98815.53;;;14.84;73.49
52719;BME280;38616;42.140;24.760;2023-04-25T00:35:56;98809.50;;;14.99;72.66
52719;BME280;38616;42.140;24.760;2023-04-25T00:38:21;98802.84;;;14.79;72.83
52719;BME280;38616;42.140;24.760;2023-04-25T00:40:47;98797.88;;;14.72;73.07
52719;BME280;38616;42.140;24.760;2023-04-25T00:43:13;98797.31;;;14.40;73.96
52719;BME280;38616;42.140;24.760;2023-04-25T00:45:39;98802.91;;;14.44;74.48
52719;BME280;38616;42.140;24.760;2023-04-25T00:48:05;98810.72;;;14.63;73.76
52719;BME280;38616;42.140;24.760;2023-04-25T00:50:33;98803.34;;;14.72;73.62
52719;BME280;38616;42.140;24.760;2023-04-25T00:52:59;98803.31;;;14.81;73.05
52719;BME280;38616;42.140;24.760;2023-04-25T00:55:25;98805.31;;;15.02;72.41
52719;BME280;38616;42.140;24.760;2023-04-25T00:57:51;98807.47;;;15.17;72.01
52719;BME280;38616;42.140;24.760;2023-04-25T01:00:17;98811.81;;;15.18;71.66
52719;BME280;38616;42.140;24.760;2023-04-25T01:02:43;98818.94;;;15.11;72.08
52719;BME280;38616;42.140;24.760;2023-04-25T01:05:10;98819.91;;;15.15;72.41
52719;BME280;38616;42.140;24.760;2023-04-25T01:07:35;98811.06;;;14.79;71.88
52719;BME280;38616;42.140;24.760;2023-04-25T01:10:01;98797.44;;;15.00;72.49
52719;BME280;38616;42.140;24.760;2023-04-25T01:12:26;98803.13;;;15.16;71.68
52719;BME280;38616;42.140;24.760;2023-04-25T01:14:52;98809.91;;;15.19;71.64
52719;BME280;38616;42.140;24.760;2023-04-25T01:17:19;98818.19;;;15.01;71.37
52719;BME280;38616;42.140;24.760;2023-04-25T01:19:45;98815.44;;;15.01;72.02
52719;BME280;38616;42.140;24.760;2023-04-25T01:22:13;98817.84;;;15.03;72.43
52719;BME280;38616;42.140;24.760;2023-04-25T01:24:39;98809.31;;;15.04;72.28
52719;BME280;38616;42.140;24.760;2023-04-25T01:27:05;98819.31;;;15.00;71.95
52719;BME280;38616;42.140;24.760;2023-04-25T01:29:32;98817.41;;;15.01;71.64
52719;BME280;38616;42.140;24.760;2023-04-25T01:31:58;98814.19;;;14.99;71.81
52719;BME280;38616;42.140;24.760;2023-04-25T01:34:24;98798.16;;;14.88;71.59
52719;BME280;38616;42.140;24.760;2023-04-25T01:36:50;98804.94;;;14.73;72.50
52719;BME280;38616;42.140;24.760;2023-04-25T01:39:19;98807.56;;;14.52;73.26
52719;BME280;38616;42.140;24.760;2023-04-25T01:41:48;98797.72;;;14.69;72.86
52719;BME280;38616;42.140;24.760;2023-04-25T01:44:14;98802.84;;;14.79;72.92
52719;BME280;38616;42.140;24.760;2023-04-25T01:46:40;98807.00;;;14.85;72.92
52719;BME280;38616;42.140;24.760;2023-04-25T01:49:05;98801.19;;;14.96;72.65
52719;BME280;38616;42.140;24.760;2023-04-25T01:51:31;98807.59;;;15.00;72.36
52719;BME280;38616;42.140;24.760;2023-04-25T01:53:57;98805.59;;;15.09;72.44
52719;BME280;38616;42.140;24.760;2023-04-25T01:56:23;98796.91;;;15.07;72.69
52719;BME280;38616;42.140;24.760;2023-04-25T01:58:48;98784.53;;;15.10;72.54
52719;BME280;38616;42.140;24.760;2023-04-25T02:01:14;98781.50;;;15.02;72.84
52719;BME280;38616;42.140;24.760;2023-04-25T02:03:39;98782.28;;;15.03;72.66
52719;BME280;38616;42.140;24.760;2023-04-25T02:06:05;98794.66;;;15.09;72.56
52719;BME280;38616;42.140;24.760;2023-04-25T02:08:30;98791.41;;;15.16;72.83
52719;BME280;38616;42.140;24.760;2023-04-25T02:10:56;98787.38;;;15.13;72.49
52719;BME280;38616;42.140;24.760;2023-04-25T02:13:22;98787.53;;;15.17;72.45
52719;BME280;38616;42.140;24.760;2023-04-25T02:15:47;98785.09;;;15.24;72.26
52719;BME280;38616;42.140;24.760;2023-04-25T02:18:12;98787.53;;;15.17;73.13
52719;BME280;38616;42.140;24.760;2023-04-25T02:20:41;98778.38;;;15.13;72.89
52719;BME280;38616;42.140;24.760;2023-04-25T02:23:06;98782.28;;;15.03;73.46
52719;BME280;38616;42.140;24.760;2023-04-25T02:25:32;98781.81;;;15.31;72.83
52719;BME280;38616;42.140;24.760;2023-04-25T02:27:57;98789.53;;;15.07;73.08
52719;BME280;38616;42.140;24.760;2023-04-25T02:30:23;98787.38;;;15.13;73.54
52719;BME280;38616;42.140;24.760;2023-04-25T02:32:48;98784.66;;;15.13;73.39
52719;BME280;38616;42.140;24.760;2023-04-25T02:35:13;98780.13;;;15.17;73.25
52719;BME280;38616;42.140;24.760;2023-04-25T02:37:39;98783.19;;;15.16;72.74
52719;BME280;38616;42.140;24.760;2023-04-25T02:40:05;98779.66;;;15.15;72.79
52719;BME280;38616;42.140;24.760;2023-04-25T02:42:31;98776.38;;;15.01;72.80
52719;BME280;38616;42.140;24.760;2023-04-25T02:44:57;98781.09;;;14.91;72.74
52719;BME280;38616;42.140;24.760;2023-04-25T02:47:23;98777.69;;;14.95;72.56
52719;BME280;38616;42.140;24.760;2023-04-25T02:49:48;98775.03;;;15.07;72.49
52719;BME280;38616;42.140;24.760;2023-04-25T02:52:13;98774.66;;;14.87;72.61
52719;BME280;38616;42.140;24.760;2023-04-25T02:54:40;98792.72;;;14.62;73.95
52719;BME280;38616;42.140;24.760;2023-04-25T02:57:05;98793.69;;;14.75;73.82
52719;BME280;38616;42.140;24.760;2023-04-25T02:59:31;98790.81;;;14.62;73.81
52719;BME280;38616;42.140;24.760;2023-04-25T03:01:56;98794.03;;;14.65;74.20
52719;BME280;38616;42.140;24.760;2023-04-25T03:04:21;98798.94;;;14.41;74.54
52719;BME280;38616;42.140;24.760;2023-04-25T03:06:49;98795.63;;;14.00;75.88
52719;BME280;38616;42.140;24.760;2023-04-25T03:09:15;98794.81;;;14.00;76.58
52719;BME280;38616;42.140;24.760;2023-04-25T03:11:41;98798.28;;;14.36;75.80
52719;BME280;38616;42.140;24.760;2023-04-25T03:14:06;98794.13;;;14.38;75.14
52719;BME280;38616;42.140;24.760;2023-04-25T03:16:34;98795.09;;;14.25;74.49
52719;BME280;38616;42.140;24.760;2023-04-25T03:19:02;98795.41;;;14.32;74.74
52719;BME280;38616;42.140;24.760;2023-04-25T03:21:28;98803.88;;;14.48;74.01
52719;BME280;38616;42.140;24.760;2023-04-25T03:23:53;98812.06;;;14.48;73.67
52719;BME280;38616;42.140;24.760;2023-04-25T03:26:18;98803.41;;;14.55;73.20
52719;BME280;38616;42.140;24.760;2023-04-25T03:28:44;98797.47;;;14.44;73.35
52719;BME280;38616;42.140;24.760;2023-04-25T03:31:10;98790.25;;;14.39;73.54
52719;BME280;38616;42.140;24.760;2023-04-25T03:33:35;98785.28;;;14.32;73.72
52719;BME280;38616;42.140;24.760;2023-04-25T03:36:00;98782.84;;;14.40;73.65
52719;BME280;38616;42.140;24.760;2023-04-25T03:38:26;98776.06;;;14.55;73.25
52719;BME280;38616;42.140;24.760;2023-04-25T03:40:53;98767.94;;;14.67;72.51
52719;BME280;38616;42.140;24.760;2023-04-25T03:43:19;98762.72;;;14.53;72.49
52719;BME280;38616;42.140;24.760;2023-04-25T03:45:44;98757.53;;;14.60;72.39
52719;BME280;38616;42.140;24.760;2023-04-25T03:48:10;98764.00;;;14.47;72.76
52719;BME280;38616;42.140;24.760;2023-04-25T03:50:35;98760.25;;;14.69;72.08
52719;BME280;38616;42.140;24.760;2023-04-25T03:53:00;98759.59;;;14.72;71.65
52719;BME280;38616;42.140;24.760;2023-04-25T03:55:26;98758.28;;;14.78;71.87
52719;BME280;38616;42.140;24.760;2023-04-25T03:57:51;98759.16;;;14.61;72.10
52719;BME280;38616;42.140;24.760;2023-04-25T04:00:17;98765.88;;;14.73;71.95
52719;BME280;38616;42.140;24.760;2023-04-25T04:02:42;98755.03;;;14.46;73.08
52719;BME280;38616;42.140;24.760;2023-04-25T04:05:07;98753.09;;;14.47;72.77
52719;BME280;38616;42.140;24.760;2023-04-25T04:07:33;98753.25;;;14.51;73.33
52719;BME280;38616;42.140;24.760;2023-04-25T04:10:01;98749.34;;;14.60;72.70
52719;BME280;38616;42.140;24.760;2023-04-25T04:12:27;98751.03;;;14.35;72.41
52719;BME280;38616;42.140;24.760;2023-04-25T04:14:52;98758.25;;;14.48;72.84
52719;BME280;38616;42.140;24.760;2023-04-25T04:17:18;98751.25;;;14.60;72.19
52719;BME280;38616;42.140;24.760;2023-04-25T04:19:43;98753.81;;;14.74;71.85
52719;BME280;38616;42.140;24.760;2023-04-25T04:22:09;98759.44;;;14.69;71.45
52719;BME280;38616;42.140;24.760;2023-04-25T04:24:35;98766.69;;;14.65;71.59
52719;BME280;38616;42.140;24.760;2023-04-25T04:27:00;98771.66;;;14.80;71.97
52719;BME280;38616;42.140;24.760;2023-04-25T04:29:27;98778.47;;;14.95;70.54
52719;BME280;38616;42.140;24.760;2023-04-25T04:31:52;98768.84;;;14.89;70.87
52719;BME280;38616;42.140;24.760;2023-04-25T04:34:18;98774.53;;;15.14;70.65
52719;BME280;38616;42.140;24.760;2023-04-25T04:36:46;98774.00;;;14.90;70.54
52719;BME280;38616;42.140;24.760;2023-04-25T04:39:12;98778.00;;;14.93;71.25
52719;BME280;38616;42.140;24.760;2023-04-25T04:41:38;98764.44;;;15.05;71.44
52719;BME280;38616;42.140;24.760;2023-04-25T04:44:05;98765.28;;;15.27;70.19
52719;BME280;38616;42.140;24.760;2023-04-25T04:46:32;98772.28;;;15.07;70.39
52719;BME280;38616;42.140;24.760;2023-04-25T04:49:04;98764.09;;;15.07;70.55
52719;BME280;38616;42.140;24.760;2023-04-25T04:51:30;98765.84;;;15.12;69.88
52719;BME280;38616;42.140;24.760;2023-04-25T04:53:56;98770.50;;;15.11;69.77
52719;BME280;38616;42.140;24.760;2023-04-25T04:56:23;98774.81;;;15.21;69.70
52719;BME280;38616;42.140;24.760;2023-04-25T04:58:50;98770.59;;;15.24;69.80
52719;BME280;38616;42.140;24.760;2023-04-25T05:01:16;98775.41;;;15.27;70.23
52719;BME280;38616;42.140;24.760;2023-04-25T05:03:41;98770.47;;;15.62;69.44
52719;BME280;38616;42.140;24.760;2023-04-25T05:06:07;98780.28;;;15.63;68.41
52719;BME280;38616;42.140;24.760;2023-04-25T05:08:34;98781.78;;;15.61;68.69
52719;BME280;38616;42.140;24.760;2023-04-25T05:11:01;98775.09;;;15.49;68.59
52719;BME280;38616;42.140;24.760;2023-04-25T05:13:27;98771.63;;;15.40;69.53
52719;BME280;38616;42.140;24.760;2023-04-25T05:15:52;98767.06;;;15.44;68.94
52719;BME280;38616;42.140;24.760;2023-04-25T05:18:18;98773.75;;;15.56;68.96
52719;BME280;38616;42.140;24.760;2023-04-25T05:20:43;98766.13;;;15.61;68.28
52719;BME280;38616;42.140;24.760;2023-04-25T05:23:08;98765.00;;;15.41;69.21
52719;BME280;38616;42.140;24.760;2023-04-25T05:25:34;98771.50;;;15.36;69.55
52719;BME280;38616;42.140;24.760;2023-04-25T05:27:59;98771.06;;;15.47;69.75
52719;BME280;38616;42.140;24.760;2023-04-25T05:30:25;98785.22;;;15.49;68.82
52719;BME280;38616;42.140;24.760;2023-04-25T05:32:50;98775.16;;;15.62;68.80
52719;BME280;38616;42.140;24.760;2023-04-25T05:35:16;98772.69;;;15.69;67.89
52719;BME280;38616;42.140;24.760;2023-04-25T05:37:41;98770.66;;;15.57;68.74
52719;BME280;38616;42.140;24.760;2023-04-25T05:40:09;98772.75;;;15.60;68.72
52719;BME280;38616;42.140;24.760;2023-04-25T05:42:34;98771.50;;;15.58;68.50
52719;BME280;38616;42.140;24.760;2023-04-25T05:45:00;98773.59;;;15.52;68.90
52719;BME280;38616;42.140;24.760;2023-04-25T05:47:26;98770.88;;;15.31;69.83
52719;BME280;38616;42.140;24.760;2023-04-25T05:49:51;98776.78;;;15.42;68.90
52719;BME280;38616;42.140;24.760;2023-04-25T05:52:17;98778.22;;;15.39;69.32
52719;BME280;38616;42.140;24.760;2023-04-25T05:54:42;98773.47;;;15.48;68.79
52719;BME280;38616;42.140;24.760;2023-04-25T05:57:07;98774.69;;;15.60;69.03
52719;BME280;38616;42.140;24.760;2023-04-25T05:59:33;98772.81;;;15.73;69.37
52719;BME280;38616;42.140;24.760;2023-04-25T06:01:58;98760.25;;;15.93;68.75
52719;BME280;38616;42.140;24.760;2023-04-25T06:04:25;98761.19;;;15.97;68.46
52719;BME280;38616;42.140;24.760;2023-04-25T06:06:50;98765.72;;;15.93;68.83
52719;BME280;38616;42.140;24.760;2023-04-25T06:09:16;98765.56;;;16.10;68.15
52719;BME280;38616;42.140;24.760;2023-04-25T06:11:41;98762.56;;;16.03;67.20
52719;BME280;38616;42.140;24.760;2023-04-25T06:14:06;98764.19;;;15.83;67.42
52719;BME280;38616;42.140;24.760;2023-04-25T06:16:32;98768.94;;;15.52;67.27
52719;BME280;38616;42.140;24.760;2023-04-25T06:18:58;98756.94;;;15.66;66.49
52719;BME280;38616;42.140;24.760;2023-04-25T06:21:23;98747.94;;;15.87;66.08
52719;BME280;38616;42.140;24.760;2023-04-25T06:23:48;98761.22;;;15.55;67.00
52719;BME280;38616;42.140;24.760;2023-04-25T06:26:14;98756.31;;;15.81;66.90
52719;BME280;38616;42.140;24.760;2023-04-25T06:28:39;98752.53;;;16.07;65.51
52719;BME280;38616;42.140;24.760;2023-04-25T06:31:05;98752.72;;;16.23;64.81
52719;BME280;38616;42.140;24.760;2023-04-25T06:33:30;98750.75;;;16.24;65.07
52719;BME280;38616;42.140;24.760;2023-04-25T06:35:56;98741.19;;;16.30;64.81
52719;BME280;38616;42.140;24.760;2023-04-25T06:38:21;98751.47;;;16.33;64.91
52719;BME280;38616;42.140;24.760;2023-04-25T06:40:47;98741.50;;;15.83;66.82
52719;BME280;38616;42.140;24.760;2023-04-25T06:43:12;98731.16;;;15.67;67.59
52719;BME280;38616;42.140;24.760;2023-04-25T06:45:38;98739.72;;;15.99;68.01
52719;BME280;38616;42.140;24.760;2023-04-25T06:48:03;98737.41;;;16.35;66.59
52719;BME280;38616;42.140;24.760;2023-04-25T06:50:29;98738.47;;;16.43;65.40
52719;BME280;38616;42.140;24.760;2023-04-25T06:52:54;98746.91;;;16.37;64.74
52719;BME280;38616;42.140;24.760;2023-04-25T06:55:20;98738.56;;;15.88;66.16
52719;BME280;38616;42.140;24.760;2023-04-25T06:57:45;98746.22;;;15.94;66.53
52719;BME280;38616;42.140;24.760;2023-04-25T07:00:11;98742.53;;;16.24;65.80
52719;BME280;38616;42.140;24.760;2023-04-25T07:02:36;98754.94;;;16.55;65.21
52719;BME280;38616;42.140;24.760;2023-04-25T07:05:03;98751.06;;;16.68;64.71
52719;BME280;38616;42.140;24.760;2023-04-25T07:07:29;98747.41;;;16.77;64.42
52719;BME280;38616;42.140;24.760;2023-04-25T07:09:55;98741.94;;;17.02;63.37
52719;BME280;38616;42.140;24.760;2023-04-25T07:12:21;98740.31;;;17.25;62.50
52719;BME280;38616;42.140;24.760;2023-04-25T07:14:46;98743.97;;;17.17;62.44
52719;BME280;38616;42.140;24.760;2023-04-25T07:17:12;98749.00;;;17.15;62.46
52719;BME280;38616;42.140;24.760;2023-04-25T07:19:37;98744.09;;;17.21;62.34
52719;BME280;38616;42.140;24.760;2023-04-25T07:22:05;98741.31;;;16.46;64.65
52719;BME280;38616;42.140;24.760;2023-04-25T07:24:30;98744.97;;;16.38;64.81
52719;BME280;38616;42.140;24.760;2023-04-25T07:26:56;98741.41;;;16.25;64.80
52719;BME280;38616;42.140;24.760;2023-04-25T07:29:21;98726.81;;;16.33;65.17
52719;BME280;38616;42.140;24.760;2023-04-25T07:31:46;98732.56;;;16.65;63.37
52719;BME280;38616;42.140;24.760;2023-04-25T07:34:12;98726.38;;;16.56;63.63
52719;BME280;38616;42.140;24.760;2023-04-25T07:36:37;98726.59;;;16.88;62.61
52719;BME280;38616;42.140;24.760;2023-04-25T07:39:03;98719.72;;;16.94;62.41
52719;BME280;38616;42.140;24.760;2023-04-25T07:41:30;98731.28;;;16.50;62.69
52719;BME280;38616;42.140;24.760;2023-04-25T07:43:56;98728.66;;;16.79;62.34
52719;BME280;38616;42.140;24.760;2023-04-25T07:46:21;98726.63;;;17.01;61.10
52719;BME280;38616;42.140;24.760;2023-04-25T07:48:47;98718.28;;;16.97;61.23
52719;BME280;38616;42.140;24.760;2023-04-25T07:51:12;98713.25;;;16.99;61.08
52719;BME280;38616;42.140;24.760;2023-04-25T07:53:37;98717.47;;;16.96;61.12
52719;BME280;38616;42.140;24.760;2023-04-25T07:56:06;98715.38;;;16.93;60.91
52719;BME280;38616;42.140;24.760;2023-04-25T07:58:32;98711.53;;;17.07;60.03
52719;BME280;38616;42.140;24.760;2023-04-25T08:00:57;98705.34;;;17.51;59.64
52719;BME280;38616;42.140;24.760;2023-04-25T08:03:22;98707.63;;;17.77;58.21
52719;BME280;38616;42.140;24.760;2023-04-25T08:05:48;98704.63;;;17.82;58.39
52719;BME280;38616;42.140;24.760;2023-04-25T08:08:13;98701.72;;;18.04;58.23
52719;BME280;38616;42.140;24.760;2023-04-25T08:10:39;98709.78;;;18.28;57.74
52719;BME280;38616;42.140;24.760;2023-04-25T08:13:04;98704.31;;;18.44;57.27
52719;BME280;38616;42.140;24.760;2023-04-25T08:15:29;98714.59;;;18.64;55.96
52719;BME280;38616;42.140;24.760;2023-04-25T08:17:55;98714.56;;;18.80;55.08
52719;BME280;38616;42.140;24.760;2023-04-25T08:20:20;98715.38;;;18.48;54.74
52719;BME280;38616;42.140;24.760;2023-04-25T08:22:46;98721.13;;;17.82;55.75
52719;BME280;38616;42.140;24.760;2023-04-25T08:25:13;98724.53;;;17.63;55.95
52719;BME280;38616;42.140;24.760;2023-04-25T08:27:39;98711.66;;;17.80;55.36
52719;BME280;38616;42.140;24.760;2023-04-25T08:30:05;98716.63;;;18.19;53.80
52719;BME280;38616;42.140;24.760;2023-04-25T08:32:30;98718.84;;;18.45;54.07
52719;BME280;38616;42.140;24.760;2023-04-25T08:34:56;98701.63;;;18.64;53.80
52719;BME280;38616;42.140;24.760;2023-04-25T08:37:21;98706.88;;;18.53;51.86
52719;BME280;38616;42.140;24.760;2023-04-25T08:39:47;98711.84;;;17.87;52.72
52719;BME280;38616;42.140;24.760;2023-04-25T08:42:17;98716.78;;;17.81;52.27
52719;BME280;38616;42.140;24.760;2023-04-25T08:44:45;98727.19;;;17.60;53.30
52719;BME280;38616;42.140;24.760;2023-04-25T08:47:10;98719.00;;;17.76;53.69
52719;BME280;38616;42.140;24.760;2023-04-25T08:49:35;98717.09;;;17.92;53.02
52719;BME280;38616;42.140;24.760;2023-04-25T08:52:03;98725.19;;;17.72;53.08
52719;BME280;38616;42.140;24.760;2023-04-25T08:54:32;98728.00;;;17.76;53.75
52719;BME280;38616;42.140;24.760;2023-04-25T08:57:01;98724.88;;;17.62;54.88
52719;BME280;38616;42.140;24.760;2023-04-25T08:59:27;98742.59;;;17.64;55.56
52719;BME280;38616;42.140;24.760;2023-04-25T09:01:53;98736.69;;;17.50;56.08
52719;BME280;38616;42.140;24.760;2023-04-25T09:04:18;98731.69;;;17.68;56.27
52719;BME280;38616;42.140;24.760;2023-04-25T09:06:46;98735.88;;;17.90;55.54
52719;BME280;38616;42.140;24.760;2023-04-25T09:09:11;98730.88;;;17.80;55.87
52719;BME280;38616;42.140;24.760;2023-04-25T09:11:37;98735.19;;;17.65;56.58
52719;BME280;38616;42.140;24.760;2023-04-25T09:14:12;98730.91;;;17.39;58.01
52719;BME280;38616;42.140;24.760;2023-04-25T09:19:23;98726.91;;;17.24;58.75
52719;BME280;38616;42.140;24.760;2023-04-25T09:21:50;98724.78;;;17.05;59.63
52719;BME280;38616;42.140;24.760;2023-04-25T09:24:16;98721.47;;;17.11;59.70
52719;BME280;38616;42.140;24.760;2023-04-25T09:26:41;98720.59;;;17.48;59.33
52719;BME280;38616;42.140;24.760;2023-04-25T09:29:07;98711.59;;;17.92;59.21
52719;BME280;38616;42.140;24.760;2023-04-25T09:31:33;98714.03;;;18.10;57.07
52719;BME280;38616;42.140;24.760;2023-04-25T09:33:59;98708.13;;;18.24;56.44
52719;BME280;38616;42.140;24.760;2023-04-25T09:36:26;98704.38;;;18.48;55.06
52719;BME280;38616;42.140;24.760;2023-04-25T09:38:52;98707.81;;;18.61;53.70
52719;BME280;38616;42.140;24.760;2023-04-25T09:41:23;98700.91;;;18.83;53.43
52719;BME280;38616;42.140;24.760;2023-04-25T09:43:49;98699.81;;;18.88;53.31
52719;BME280;38616;42.140;24.760;2023-04-25T09:46:15;98690.94;;;18.95;52.42
52719;BME280;38616;42.140;24.760;2023-04-25T09:48:49;98692.00;;;19.26;52.31
52719;BME280;38616;42.140;24.760;2023-04-25T09:51:15;98689.97;;;19.23;52.14
52719;BME280;38616;42.140;24.760;2023-04-25T09:53:44;98689.75;;;19.51;51.65
52719;BME280;38616;42.140;24.760;2023-04-25T09:56:16;98685.22;;;19.39;51.40
52719;BME280;38616;42.140;24.760;2023-04-25T09:58:42;98677.00;;;19.62;50.66
52719;BME280;38616;42.140;24.760;2023-04-25T10:01:09;98673.69;;;19.53;51.24
52719;BME280;38616;42.140;24.760;2023-04-25T10:03:35;98663.28;;;19.43;51.42
52719;BME280;38616;42.140;24.760;2023-04-25T10:06:03;98652.44;;;19.54;51.33
52719;BME280;38616;42.140;24.760;2023-04-25T10:08:33;98649.47;;;19.62;50.98
52719;BME280;38616;42.140;24.760;2023-04-25T10:11:04;98654.81;;;19.55;50.39
52719;BME280;38616;42.140;24.760;2023-04-25T10:13:30;98645.13;;;19.61;50.26
52719;BME280;38616;42.140;24.760;2023-04-25T10:16:03;98640.84;;;19.64;50.08
52719;BME280;38616;42.140;24.760;2023-04-25T10:18:30;98632.19;;;19.66;49.62
52719;BME280;38616;42.140;24.760;2023-04-25T10:21:03;98633.47;;;19.48;49.91
52719;BME280;38616;42.140;24.760;2023-04-25T10:23:30;98629.06;;;19.24;49.23
52719;BME280;38616;42.140;24.760;2023-04-25T10:25:57;98615.88;;;19.14;50.20
52719;BME280;38616;42.140;24.760;2023-04-25T10:28:23;98607.63;;;19.33;49.21
52719;BME280;38616;42.140;24.760;2023-04-25T10:31:04;98609.03;;;19.47;48.47
52719;BME280;38616;42.140;24.760;2023-04-25T10:33:42;98604.28;;;19.24;48.34
52719;BME280;38616;42.140;24.760;2023-04-25T10:36:17;98589.41;;;19.29;48.46
52719;BME280;38616;42.140;24.760;2023-04-25T10:38:44;98585.22;;;19.35;47.96
52719;BME280;38616;42.140;24.760;2023-04-25T10:41:12;98579.78;;;19.39;46.68
52719;BME280;38616;42.140;24.760;2023-04-25T10:43:42;98572.78;;;19.45;47.30
52719;BME280;38616;42.140;24.760;2023-04-25T10:46:22;98569.28;;;19.91;47.30
52719;BME280;38616;42.140;24.760;2023-04-25T10:48:58;98571.38;;;19.98;46.63
52719;BME280;38616;42.140;24.760;2023-04-25T10:51:25;98562.69;;;19.96;46.58
52719;BME280;38616;42.140;24.760;2023-04-25T10:56:21;98554.84;;;19.98;45.13
52719;BME280;38616;42.140;24.760;2023-04-25T10:58:47;98563.41;;;20.16;45.36
52719;BME280;38616;42.140;24.760;2023-04-25T11:01:24;98551.75;;;20.26;45.11
52719;BME280;38616;42.140;24.760;2023-04-25T11:03:57;98544.63;;;20.25;45.59
52719;BME280;38616;42.140;24.760;2023-04-25T11:06:29;98534.91;;;20.35;46.58
52719;BME280;38616;42.140;24.760;2023-04-25T11:08:54;98540.28;;;20.51;46.90
52719;BME280;38616;42.140;24.760;2023-04-25T11:11:20;98537.94;;;20.53;46.96
52719;BME280;38616;42.140;24.760;2023-04-25T11:13:49;98537.44;;;20.47;47.71
52719;BME280;38616;42.140;24.760;2023-04-25T11:16:16;98540.84;;;20.37;47.08
52719;BME280;38616;42.140;24.760;2023-04-25T11:18:43;98536.34;;;20.52;46.14
52719;BME280;38616;42.140;24.760;2023-04-25T11:21:09;98526.13;;;20.26;45.65
52719;BME280;38616;42.140;24.760;2023-04-25T11:23:35;98533.03;;;20.12;45.83
52719;BME280;38616;42.140;24.760;2023-04-25T11:26:00;98534.59;;;20.40;46.05
52719;BME280;38616;42.140;24.760;2023-04-25T11:28:26;98530.69;;;20.72;46.79
52719;BME280;38616;42.140;24.760;2023-04-25T11:30:52;98522.94;;;20.81;46.68
52719;BME280;38616;42.140;24.760;2023-04-25T11:33:23;98516.09;;;20.71;47.24
52719;BME280;38616;42.140;24.760;2023-04-25T11:35:49;98510.69;;;20.78;47.42
52719;BME280;38616;42.140;24.760;2023-04-25T11:38:14;98514.13;;;20.72;47.99
52719;BME280;38616;42.140;24.760;2023-04-25T11:40:40;98504.22;;;20.67;47.63
52719;BME280;38616;42.140;24.760;2023-04-25T11:43:06;98507.19;;;20.51;47.90
52719;BME280;38616;42.140;24.760;2023-04-25T11:45:32;98493.31;;;20.47;48.50
52719;BME280;38616;42.140;24.760;2023-04-25T11:47:57;98491.69;;;20.73;48.04
52719;BME280;38616;42.140;24.760;2023-04-25T11:50:23;98484.03;;;20.90;47.64
52719;BME280;38616;42.140;24.760;2023-04-25T11:52:48;98482.84;;;20.91;47.23
52719;BME280;38616;42.140;24.760;2023-04-25T11:55:20;98486.91;;;20.70;47.19
52719;BME280;38616;42.140;24.760;2023-04-25T11:57:48;98483.44;;;20.77;47.42
52719;BME280;38616;42.140;24.760;2023-04-25T12:00:20;98472.00;;;20.75;47.13
52719;BME280;38616;42.140;24.760;2023-04-25T12:02:47;98464.50;;;20.75;47.68
52719;BME280;38616;42.140;24.760;2023-04-25T12:05:14;98472.19;;;20.28;47.70
52719;BME280;38616;42.140;24.760;2023-04-25T12:07:40;98465.19;;;19.81;48.20
52719;BME280;38616;42.140;24.760;2023-04-25T12:10:07;98464.63;;;19.95;48.43
52719;BME280;38616;42.140;24.760;2023-04-25T12:12:37;98452.94;;;20.32;48.21
52719;BME280;38616;42.140;24.760;2023-04-25T12:15:18;98453.13;;;20.46;47.78
52719;BME280;38616;42.140;24.760;2023-04-25T12:17:47;98457.56;;;20.55;47.61
52719;BME280;38616;42.140;24.760;2023-04-25T12:20:21;98448.63;;;20.65;47.06
52719;BME280;38616;42.140;24.760;2023-04-25T12:22:49;98447.16;;;20.75;47.11
52719;BME280;38616;42.140;24.760;2023-04-25T12:25:43;98437.78;;;20.79;46.22
52719;BME280;38616;42.140;24.760;2023-04-25T12:31:04;98450.19;;;20.66;45.99
52719;BME280;38616;42.140;24.760;2023-04-25T12:33:34;98441.69;;;20.78;46.36
52719;BME280;38616;42.140;24.760;2023-04-25T12:36:02;98452.38;;;20.49;46.26
52719;BME280;38616;42.140;24.760;2023-04-25T12:38:40;98444.75;;;20.39;47.30
52719;BME280;38616;42.140;24.760;2023-04-25T12:41:06;98447.94;;;20.75;46.25
52719;BME280;38616;42.140;24.760;2023-04-25T12:43:32;98437.00;;;20.83;46.13
52719;BME280;38616;42.140;24.760;2023-04-25T12:45:57;98429.66;;;20.98;45.67
52719;BME280;38616;42.140;24.760;2023-04-25T12:48:23;98420.81;;;21.19;45.55
52719;BME280;38616;42.140;24.760;2023-04-25T12:50:50;98426.69;;;21.14;44.36
52719;BME280;38616;42.140;24.760;2023-04-25T12:53:20;98420.03;;;21.22;44.49
52719;BME280;38616;42.140;24.760;2023-04-25T12:55:46;98426.38;;;21.26;44.13